Terminal Aerodrome Forecast
Issued by NWS

Current Version | Previous Version | Graphics & Text | Print | Product List | Glossary On
Versions: 1 2 3 4 5 6 7 8 9 10 11 12 13 14 15 16 17 18 19 20 21 22 23 24 25 26
154
FTUS41 KILN 142338
TAFLUK
TAF
KLUK 142338Z 1500/1524 34005KT 6SM BR OVC008
      TEMPO 1500/1504 3SM -DZ BR OVC005
     FM150400 35004KT 5SM BR OVC010
     FM150800 VRB03KT P6SM OVC015
     FM151300 04004KT P6SM OVC028
     FM151600 06006KT P6SM OVC040=

USA.gov is the U.S. government's official web portal to all federal, state and local government web resources and services.